METAR-Meldungen aus der Umgebung

   
EDMO - Oberpfaffenhofen, Germany
Entfernung von der Station bis: SSO 18 km
Aktualisierung: 23-02-2024 18:50
Klar  
Klar  
   Wind: SSO 11.1 km/h
Wind: SSO 11.1 km/h
Temperatur: 2°C
Gefühlt: -1°C
Taupunkt: -1°C
Luftfeuchte: 81%
Luftdruck: 999 hPa
Sichtbarkeit: Mehr als 10 km
Bewölkung: Klar ft
EDMO 231750Z 15006KT CAVOK 02/M01 Q0999
ETSL - Lechfeld (ger-Af, Germany
Entfernung von der Station bis: WSW 23 km
Aktualisierung: 23-02-2024 18:20
  
  
   Wind: SO 13 km/h
Wind: SO 13 km/h
Temperatur: 3°C
Gefühlt: -1°C
Taupunkt: -2°C
Luftfeuchte: 70%
Luftdruck: 999 hPa
Sichtbarkeit: Mehr als 10 km
ETSL 231720Z AUTO 13007KT 9999 // ////// 03/M02 Q0999 ///
EDMA - Augsburg/Mulhaus, Germany
Entfernung von der Station bis: NW 30 km
Aktualisierung: 23-02-2024 18:50
Bewölkt  
Bewölkt  
   Wind: SSO 11.1 km/h
Wind: SSO 11.1 km/h
Temperatur: 4°C
Gefühlt: 1°C
Taupunkt: -1°C
Luftfeuchte: 70%
Luftdruck: 999 hPa
Bewölkt: Overcast
Sichtbarkeit: Mehr als 10 km
Bewölkung: Bewölkt 15000 ft
EDMA 231750Z AUTO 15006KT 9999 // OVC150/// 04/M01 Q0999
ETHA - Altenstadt/Schon, Germany
Entfernung von der Station bis: SSW 49 km
Aktualisierung: 23-02-2024 18:20
  
  
   Wind: variiert 5.6 km/h
Wind: variiert 5.6 km/h
Temperatur: 2°C
Gefühlt: 1°C
Taupunkt: -3°C
Luftfeuchte: 70%
Luftdruck: 999 hPa
Sichtbarkeit: Mehr als 10 km
ETHA 231720Z AUTO VRB03KT 9999 // ////// 02/M03 Q0999 ///
EDDM - Munich-Flughafen, Germany
Entfernung von der Station bis: ONO 50 km
Aktualisierung: 23-02-2024 18:50
Klar  
Klar  
   Wind: Süden 13 km/h
Wind: Süden 13 km/h
Temperatur: 3°C
Gefühlt: -1°C
Taupunkt: 0°C
Luftfeuchte: 81%
Luftdruck: 1000 hPa
Sichtbarkeit: Mehr als 10 km
Bewölkung: Klar ft
EDDM 231750Z AUTO 18007KT CAVOK 03/00 Q1000 NOSIG
 

Script entwickelt von  Saratoga-weather.org Angepasst für das Template von  Weerstation Leuven